sensor_id;sensor_type;location;lat;lon;timestamp;temperature;humidity
831;DHT22;397;50.564;7.272;2023-02-01T00:02:01;5.60;99.90
831;DHT22;397;50.564;7.272;2023-02-01T00:04:28;5.70;99.90
831;DHT22;397;50.564;7.272;2023-02-01T00:06:56;5.70;99.90
831;DHT22;397;50.564;7.272;2023-02-01T00:09:24;5.70;99.90
831;DHT22;397;50.564;7.272;2023-02-01T00:11:52;5.80;99.90
831;DHT22;397;50.564;7.272;2023-02-01T00:14:19;5.70;99.90
831;DHT22;397;50.564;7.272;2023-02-01T00:16:47;5.80;99.90
831;DHT22;397;50.564;7.272;2023-02-01T00:19:15;5.80;99.90
831;DHT22;397;50.564;7.272;2023-02-01T00:21:42;5.60;99.90
831;DHT22;397;50.564;7.272;2023-02-01T00:24:12;5.70;99.90
831;DHT22;397;50.564;7.272;2023-02-01T00:26:43;5.60;99.90
831;DHT22;397;50.564;7.272;2023-02-01T00:29:13;5.60;99.90
831;DHT22;397;50.564;7.272;2023-02-01T00:31:41;5.70;99.90
831;DHT22;397;50.564;7.272;2023-02-01T00:34:14;5.80;99.90
831;DHT22;397;50.564;7.272;2023-02-01T00:36:43;5.60;99.90
831;DHT22;397;50.564;7.272;2023-02-01T00:39:11;5.50;99.90
831;DHT22;397;50.564;7.272;2023-02-01T00:41:38;5.40;99.90
831;DHT22;397;50.564;7.272;2023-02-01T00:44:07;5.50;99.90
831;DHT22;397;50.564;7.272;2023-02-01T00:46:34;5.40;99.90
831;DHT22;397;50.564;7.272;2023-02-01T00:49:02;5.50;99.90
831;DHT22;397;50.564;7.272;2023-02-01T00:51:30;5.50;99.90
831;DHT22;397;50.564;7.272;2023-02-01T00:53:58;5.60;99.90
831;DHT22;397;50.564;7.272;2023-02-01T00:56:25;5.70;99.90
831;DHT22;397;50.564;7.272;2023-02-01T00:58:56;5.70;99.90
831;DHT22;397;50.564;7.272;2023-02-01T01:01:26;5.70;99.90
831;DHT22;397;50.564;7.272;2023-02-01T01:04:00;5.70;99.90
831;DHT22;397;50.564;7.272;2023-02-01T01:06:26;5.70;99.90
831;DHT22;397;50.564;7.272;2023-02-01T01:08:55;5.70;99.90
831;DHT22;397;50.564;7.272;2023-02-01T01:11:26;5.70;99.90
831;DHT22;397;50.564;7.272;2023-02-01T01:13:56;5.60;99.90
831;DHT22;397;50.564;7.272;2023-02-01T01:16:25;5.70;99.90
831;DHT22;397;50.564;7.272;2023-02-01T01:18:54;5.70;99.90
831;DHT22;397;50.564;7.272;2023-02-01T01:21:22;5.80;99.90
831;DHT22;397;50.564;7.272;2023-02-01T01:23:49;5.80;99.90
831;DHT22;397;50.564;7.272;2023-02-01T01:26:22;5.80;99.90
831;DHT22;397;50.564;7.272;2023-02-01T01:28:51;5.70;99.90
831;DHT22;397;50.564;7.272;2023-02-01T01:31:19;5.80;99.90
831;DHT22;397;50.564;7.272;2023-02-01T01:36:38;5.80;99.90
831;DHT22;397;50.564;7.272;2023-02-01T01:39:06;5.80;99.90
831;DHT22;397;50.564;7.272;2023-02-01T01:41:34;5.70;99.90
831;DHT22;397;50.564;7.272;2023-02-01T01:44:06;5.70;99.90
831;DHT22;397;50.564;7.272;2023-02-01T01:46:36;5.70;99.90
831;DHT22;397;50.564;7.272;2023-02-01T01:49:16;5.80;99.90
831;DHT22;397;50.564;7.272;2023-02-01T01:51:57;5.80;99.90
831;DHT22;397;50.564;7.272;2023-02-01T01:54:26;5.80;99.90
831;DHT22;397;50.564;7.272;2023-02-01T01:56:56;5.90;99.90
831;DHT22;397;50.564;7.272;2023-02-01T01:59:24;6.00;99.90
831;DHT22;397;50.564;7.272;2023-02-01T02:01:52;6.00;99.90
831;DHT22;397;50.564;7.272;2023-02-01T02:04:20;6.00;99.90
831;DHT22;397;50.564;7.272;2023-02-01T02:06:54;6.00;99.90
831;DHT22;397;50.564;7.272;2023-02-01T02:09:22;6.00;99.90
831;DHT22;397;50.564;7.272;2023-02-01T02:11:49;6.00;99.90
831;DHT22;397;50.564;7.272;2023-02-01T02:14:18;6.00;99.90
831;DHT22;397;50.564;7.272;2023-02-01T02:19:48;6.00;99.90
831;DHT22;397;50.564;7.272;2023-02-01T02:34:17;6.10;99.90
831;DHT22;397;50.564;7.272;2023-02-01T02:36:52;6.10;99.90
831;DHT22;397;50.564;7.272;2023-02-01T02:42:08;6.20;99.90
831;DHT22;397;50.564;7.272;2023-02-01T02:45:16;6.20;99.90
831;DHT22;397;50.564;7.272;2023-02-01T02:48:04;6.20;99.90
831;DHT22;397;50.564;7.272;2023-02-01T02:50:41;6.20;99.90
831;DHT22;397;50.564;7.272;2023-02-01T02:53:43;6.20;99.90
831;DHT22;397;50.564;7.272;2023-02-01T02:56:23;6.20;99.90
831;DHT22;397;50.564;7.272;2023-02-01T02:59:13;6.20;99.90
831;DHT22;397;50.564;7.272;2023-02-01T03:01:59;6.20;99.90
831;DHT22;397;50.564;7.272;2023-02-01T03:04:45;6.20;99.90
831;DHT22;397;50.564;7.272;2023-02-01T03:10:05;6.20;99.90
831;DHT22;397;50.564;7.272;2023-02-01T03:12:35;6.20;99.90
831;DHT22;397;50.564;7.272;2023-02-01T03:18:33;6.10;99.90
831;DHT22;397;50.564;7.272;2023-02-01T03:20:59;6.10;99.90
831;DHT22;397;50.564;7.272;2023-02-01T03:23:31;6.10;99.90
831;DHT22;397;50.564;7.272;2023-02-01T03:26:02;6.10;99.90
831;DHT22;397;50.564;7.272;2023-02-01T03:28:33;6.10;99.90
831;DHT22;397;50.564;7.272;2023-02-01T03:31:02;6.10;99.90
831;DHT22;397;50.564;7.272;2023-02-01T03:33:30;6.10;99.90
831;DHT22;397;50.564;7.272;2023-02-01T03:38:50;6.10;99.90
831;DHT22;397;50.564;7.272;2023-02-01T03:41:42;6.20;99.90
831;DHT22;397;50.564;7.272;2023-02-01T03:44:26;6.10;99.90
831;DHT22;397;50.564;7.272;2023-02-01T03:46:59;6.20;99.90
831;DHT22;397;50.564;7.272;2023-02-01T03:49:34;6.20;99.90
831;DHT22;397;50.564;7.272;2023-02-01T03:51:58;6.20;99.90
831;DHT22;397;50.564;7.272;2023-02-01T03:54:27;6.10;99.90
831;DHT22;397;50.564;7.272;2023-02-01T03:56:58;6.10;99.90
831;DHT22;397;50.564;7.272;2023-02-01T03:59:26;6.10;99.90
831;DHT22;397;50.564;7.272;2023-02-01T04:01:53;6.10;99.90
831;DHT22;397;50.564;7.272;2023-02-01T04:04:21;6.10;99.90
831;DHT22;397;50.564;7.272;2023-02-01T04:06:51;6.20;99.90
831;DHT22;397;50.564;7.272;2023-02-01T04:09:19;6.20;99.90
831;DHT22;397;50.564;7.272;2023-02-01T04:11:46;6.20;99.90
831;DHT22;397;50.564;7.272;2023-02-01T04:14:14;6.20;99.90
831;DHT22;397;50.564;7.272;2023-02-01T04:16:41;6.20;99.90
831;DHT22;397;50.564;7.272;2023-02-01T04:19:09;6.10;99.90
831;DHT22;397;50.564;7.272;2023-02-01T04:21:36;6.10;99.90
831;DHT22;397;50.564;7.272;2023-02-01T04:24:05;6.10;99.90
831;DHT22;397;50.564;7.272;2023-02-01T04:26:33;6.10;99.90
831;DHT22;397;50.564;7.272;2023-02-01T04:29:00;6.20;99.90
831;DHT22;397;50.564;7.272;2023-02-01T04:31:28;6.20;99.90
831;DHT22;397;50.564;7.272;2023-02-01T04:33:56;6.20;99.90
831;DHT22;397;50.564;7.272;2023-02-01T04:36:24;6.10;99.90
831;DHT22;397;50.564;7.272;2023-02-01T04:38:52;6.10;99.90
831;DHT22;397;50.564;7.272;2023-02-01T04:41:20;6.20;99.90
831;DHT22;397;50.564;7.272;2023-02-01T04:43:50;6.30;99.90
831;DHT22;397;50.564;7.272;2023-02-01T04:46:18;6.20;99.90
831;DHT22;397;50.564;7.272;2023-02-01T04:48:46;6.20;99.90
831;DHT22;397;50.564;7.272;2023-02-01T04:51:14;6.20;99.90
831;DHT22;397;50.564;7.272;2023-02-01T04:53:41;6.20;99.90
831;DHT22;397;50.564;7.272;2023-02-01T04:56:09;6.20;99.90
831;DHT22;397;50.564;7.272;2023-02-01T04:58:36;6.20;99.90
831;DHT22;397;50.564;7.272;2023-02-01T05:01:05;6.10;99.90
831;DHT22;397;50.564;7.272;2023-02-01T05:03:33;6.20;99.90
831;DHT22;397;50.564;7.272;2023-02-01T05:06:01;6.10;99.90
831;DHT22;397;50.564;7.272;2023-02-01T05:08:31;6.00;99.90
831;DHT22;397;50.564;7.272;2023-02-01T05:10:59;6.00;99.90
831;DHT22;397;50.564;7.272;2023-02-01T05:13:29;5.90;99.90
831;DHT22;397;50.564;7.272;2023-02-01T05:16:15;5.80;99.90
831;DHT22;397;50.564;7.272;2023-02-01T05:18:43;6.00;99.90
831;DHT22;397;50.564;7.272;2023-02-01T05:21:11;5.90;99.90
831;DHT22;397;50.564;7.272;2023-02-01T05:23:38;5.90;99.90
831;DHT22;397;50.564;7.272;2023-02-01T05:26:24;5.80;99.90
831;DHT22;397;50.564;7.272;2023-02-01T05:28:52;5.80;99.90
831;DHT22;397;50.564;7.272;2023-02-01T05:31:20;5.80;99.90
831;DHT22;397;50.564;7.272;2023-02-01T05:33:48;5.90;99.90
831;DHT22;397;50.564;7.272;2023-02-01T05:36:15;6.00;99.90
831;DHT22;397;50.564;7.272;2023-02-01T05:38:43;5.90;99.90
831;DHT22;397;50.564;7.272;2023-02-01T05:41:11;5.80;99.90
831;DHT22;397;50.564;7.272;2023-02-01T05:43:38;5.70;99.90
831;DHT22;397;50.564;7.272;2023-02-01T05:46:06;5.60;99.90
831;DHT22;397;50.564;7.272;2023-02-01T05:48:33;5.60;99.90
831;DHT22;397;50.564;7.272;2023-02-01T05:51:01;5.50;99.90
831;DHT22;397;50.564;7.272;2023-02-01T05:53:28;5.50;99.90
831;DHT22;397;50.564;7.272;2023-02-01T05:55:56;5.40;99.90
831;DHT22;397;50.564;7.272;2023-02-01T05:58:23;5.40;99.90
831;DHT22;397;50.564;7.272;2023-02-01T06:00:51;5.50;99.90
831;DHT22;397;50.564;7.272;2023-02-01T06:03:19;5.50;99.90
831;DHT22;397;50.564;7.272;2023-02-01T06:05:47;5.50;99.90
831;DHT22;397;50.564;7.272;2023-02-01T06:08:15;5.50;99.90
831;DHT22;397;50.564;7.272;2023-02-01T06:10:43;5.40;99.90
831;DHT22;397;50.564;7.272;2023-02-01T06:13:11;5.40;99.90
831;DHT22;397;50.564;7.272;2023-02-01T06:15:38;5.30;99.90
831;DHT22;397;50.564;7.272;2023-02-01T06:18:08;5.30;99.90
831;DHT22;397;50.564;7.272;2023-02-01T06:20:35;5.30;99.90
831;DHT22;397;50.564;7.272;2023-02-01T06:23:03;5.20;99.90
831;DHT22;397;50.564;7.272;2023-02-01T06:25:32;5.20;99.90
831;DHT22;397;50.564;7.272;2023-02-01T06:28:02;5.20;99.90
831;DHT22;397;50.564;7.272;2023-02-01T06:30:32;5.20;99.90
831;DHT22;397;50.564;7.272;2023-02-01T06:32:59;5.20;99.90
831;DHT22;397;50.564;7.272;2023-02-01T06:35:26;5.10;99.90
831;DHT22;397;50.564;7.272;2023-02-01T06:37:54;5.10;99.90
831;DHT22;397;50.564;7.272;2023-02-01T06:40:21;5.00;99.90
831;DHT22;397;50.564;7.272;2023-02-01T06:42:49;5.00;99.90
831;DHT22;397;50.564;7.272;2023-02-01T06:45:17;5.10;99.90
831;DHT22;397;50.564;7.272;2023-02-01T06:47:44;5.10;99.90
831;DHT22;397;50.564;7.272;2023-02-01T06:50:12;5.10;99.90
831;DHT22;397;50.564;7.272;2023-02-01T06:52:39;5.20;99.90
831;DHT22;397;50.564;7.272;2023-02-01T06:55:07;5.10;99.90
831;DHT22;397;50.564;7.272;2023-02-01T06:57:35;5.20;99.90
831;DHT22;397;50.564;7.272;2023-02-01T07:00:04;5.10;99.90
831;DHT22;397;50.564;7.272;2023-02-01T07:02:32;5.00;99.90
831;DHT22;397;50.564;7.272;2023-02-01T07:04:59;5.00;99.90
831;DHT22;397;50.564;7.272;2023-02-01T07:07:27;5.00;99.90
831;DHT22;397;50.564;7.272;2023-02-01T07:09:54;4.90;99.90
831;DHT22;397;50.564;7.272;2023-02-01T07:12:22;5.00;99.90
831;DHT22;397;50.564;7.272;2023-02-01T07:14:49;4.90;99.90
831;DHT22;397;50.564;7.272;2023-02-01T07:17:17;4.90;99.90
831;DHT22;397;50.564;7.272;2023-02-01T07:19:44;5.00;99.90
831;DHT22;397;50.564;7.272;2023-02-01T07:22:12;5.00;99.90
831;DHT22;397;50.564;7.272;2023-02-01T07:24:39;5.00;99.90
831;DHT22;397;50.564;7.272;2023-02-01T07:27:07;5.10;99.90
831;DHT22;397;50.564;7.272;2023-02-01T07:29:34;5.20;99.90
831;DHT22;397;50.564;7.272;2023-02-01T07:32:02;5.30;99.90
831;DHT22;397;50.564;7.272;2023-02-01T07:34:29;5.20;99.90
831;DHT22;397;50.564;7.272;2023-02-01T07:36:57;5.30;99.90
831;DHT22;397;50.564;7.272;2023-02-01T07:39:25;5.30;99.90
831;DHT22;397;50.564;7.272;2023-02-01T07:41:54;5.30;99.90
831;DHT22;397;50.564;7.272;2023-02-01T07:44:23;5.30;99.90
831;DHT22;397;50.564;7.272;2023-02-01T07:46:50;5.30;99.90
831;DHT22;397;50.564;7.272;2023-02-01T07:49:18;5.40;99.90
831;DHT22;397;50.564;7.272;2023-02-01T07:51:45;5.50;99.90
831;DHT22;397;50.564;7.272;2023-02-01T07:54:13;5.60;99.90
831;DHT22;397;50.564;7.272;2023-02-01T07:56:40;5.70;99.90
831;DHT22;397;50.564;7.272;2023-02-01T07:59:08;5.70;99.90
831;DHT22;397;50.564;7.272;2023-02-01T08:01:35;5.70;99.90
831;DHT22;397;50.564;7.272;2023-02-01T08:04:03;5.80;99.90
831;DHT22;397;50.564;7.272;2023-02-01T08:06:33;5.80;99.90
831;DHT22;397;50.564;7.272;2023-02-01T08:09:01;5.90;99.90
831;DHT22;397;50.564;7.272;2023-02-01T08:11:29;6.00;99.90
831;DHT22;397;50.564;7.272;2023-02-01T08:13:58;6.10;99.90
831;DHT22;397;50.564;7.272;2023-02-01T08:16:26;6.10;99.90
831;DHT22;397;50.564;7.272;2023-02-01T08:18:53;6.20;99.90
831;DHT22;397;50.564;7.272;2023-02-01T08:21:24;6.30;99.90
831;DHT22;397;50.564;7.272;2023-02-01T08:23:52;6.20;99.90
831;DHT22;397;50.564;7.272;2023-02-01T08:26:22;6.30;99.90
831;DHT22;397;50.564;7.272;2023-02-01T08:28:53;6.40;99.90
831;DHT22;397;50.564;7.272;2023-02-01T08:31:22;6.50;99.90
831;DHT22;397;50.564;7.272;2023-02-01T08:33:58;6.50;99.90
831;DHT22;397;50.564;7.272;2023-02-01T08:36:28;6.50;99.90
831;DHT22;397;50.564;7.272;2023-02-01T08:38:56;6.50;99.90
831;DHT22;397;50.564;7.272;2023-02-01T08:41:26;6.50;99.90
831;DHT22;397;50.564;7.272;2023-02-01T08:43:56;6.60;99.90
831;DHT22;397;50.564;7.272;2023-02-01T08:46:23;6.60;99.90
831;DHT22;397;50.564;7.272;2023-02-01T08:48:51;6.60;99.90
831;DHT22;397;50.564;7.272;2023-02-01T08:51:20;6.60;99.90
831;DHT22;397;50.564;7.272;2023-02-01T08:53:48;6.60;99.90
831;DHT22;397;50.564;7.272;2023-02-01T08:56:18;6.70;99.90
831;DHT22;397;50.564;7.272;2023-02-01T08:58:45;6.80;99.90
831;DHT22;397;50.564;7.272;2023-02-01T09:01:15;6.80;99.90
831;DHT22;397;50.564;7.272;2023-02-01T09:03:43;6.80;99.90
831;DHT22;397;50.564;7.272;2023-02-01T09:06:13;6.80;99.90
831;DHT22;397;50.564;7.272;2023-02-01T09:08:41;6.90;99.90
831;DHT22;397;50.564;7.272;2023-02-01T09:11:13;7.00;99.90
831;DHT22;397;50.564;7.272;2023-02-01T09:13:40;7.00;99.90
831;DHT22;397;50.564;7.272;2023-02-01T09:16:08;7.10;99.90
831;DHT22;397;50.564;7.272;2023-02-01T09:18:35;7.00;99.90
831;DHT22;397;50.564;7.272;2023-02-01T09:21:07;7.00;99.90
831;DHT22;397;50.564;7.272;2023-02-01T09:23:35;7.10;99.90
831;DHT22;397;50.564;7.272;2023-02-01T09:26:05;7.20;99.90
831;DHT22;397;50.564;7.272;2023-02-01T09:28:33;7.20;99.90
831;DHT22;397;50.564;7.272;2023-02-01T09:31:01;7.20;99.90
831;DHT22;397;50.564;7.272;2023-02-01T09:33:28;7.20;99.90
831;DHT22;397;50.564;7.272;2023-02-01T09:36:02;7.20;99.90
831;DHT22;397;50.564;7.272;2023-02-01T09:38:26;7.20;99.90
831;DHT22;397;50.564;7.272;2023-02-01T09:40:54;7.30;99.90
831;DHT22;397;50.564;7.272;2023-02-01T09:43:45;7.20;99.90
831;DHT22;397;50.564;7.272;2023-02-01T09:46:28;7.20;99.90
831;DHT22;397;50.564;7.272;2023-02-01T09:48:55;7.30;99.90
831;DHT22;397;50.564;7.272;2023-02-01T09:51:38;7.30;99.90
831;DHT22;397;50.564;7.272;2023-02-01T09:54:16;7.30;99.90
831;DHT22;397;50.564;7.272;2023-02-01T09:59:37;7.30;99.90
831;DHT22;397;50.564;7.272;2023-02-01T10:02:11;7.50;99.90
831;DHT22;397;50.564;7.272;2023-02-01T10:04:34;7.50;99.90
831;DHT22;397;50.564;7.272;2023-02-01T10:07:21;7.50;99.90
831;DHT22;397;50.564;7.272;2023-02-01T10:15:27;7.60;99.90
831;DHT22;397;50.564;7.272;2023-02-01T10:24:17;7.80;99.90
831;DHT22;397;50.564;7.272;2023-02-01T10:26:48;7.80;99.90
831;DHT22;397;50.564;7.272;2023-02-01T10:29:18;7.90;99.90
831;DHT22;397;50.564;7.272;2023-02-01T10:31:46;8.00;99.90
831;DHT22;397;50.564;7.272;2023-02-01T10:34:19;8.10;99.90
831;DHT22;397;50.564;7.272;2023-02-01T10:39:27;8.10;99.90
831;DHT22;397;50.564;7.272;2023-02-01T10:41:55;8.10;99.90
831;DHT22;397;50.564;7.272;2023-02-01T10:44:30;8.30;99.90
831;DHT22;397;50.564;7.272;2023-02-01T10:46:58;8.30;99.90
831;DHT22;397;50.564;7.272;2023-02-01T10:49:40;8.30;99.90
831;DHT22;397;50.564;7.272;2023-02-01T10:52:12;8.50;99.90
831;DHT22;397;50.564;7.272;2023-02-01T10:54:41;8.60;99.90
831;DHT22;397;50.564;7.272;2023-02-01T10:57:19;8.80;99.90
831;DHT22;397;50.564;7.272;2023-02-01T10:59:39;8.80;99.90
831;DHT22;397;50.564;7.272;2023-02-01T11:02:23;8.90;99.90
831;DHT22;397;50.564;7.272;2023-02-01T11:04:49;9.10;99.90
831;DHT22;397;50.564;7.272;2023-02-01T11:07:24;9.30;99.90
831;DHT22;397;50.564;7.272;2023-02-01T11:09:54;9.30;99.90
831;DHT22;397;50.564;7.272;2023-02-01T11:12:34;9.10;99.90
831;DHT22;397;50.564;7.272;2023-02-01T11:17:43;9.10;99.90
831;DHT22;397;50.564;7.272;2023-02-01T11:20:19;9.30;99.90
831;DHT22;397;50.564;7.272;2023-02-01T11:22:46;9.30;99.90
831;DHT22;397;50.564;7.272;2023-02-01T11:25:16;9.40;99.90
831;DHT22;397;50.564;7.272;2023-02-01T11:27:44;9.30;99.90
831;DHT22;397;50.564;7.272;2023-02-01T11:30:17;9.30;99.90
831;DHT22;397;50.564;7.272;2023-02-01T11:32:47;9.10;99.90
831;DHT22;397;50.564;7.272;2023-02-01T11:35:18;9.00;99.90
831;DHT22;397;50.564;7.272;2023-02-01T11:37:50;9.10;99.90
831;DHT22;397;50.564;7.272;2023-02-01T11:43:49;8.80;99.90
831;DHT22;397;50.564;7.272;2023-02-01T11:45:31;8.90;99.90
831;DHT22;397;50.564;7.272;2023-02-01T11:48:15;8.90;99.90
831;DHT22;397;50.564;7.272;2023-02-01T11:51:04;9.00;99.90
831;DHT22;397;50.564;7.272;2023-02-01T11:54:00;8.90;99.90
831;DHT22;397;50.564;7.272;2023-02-01T11:56:29;8.90;99.90
831;DHT22;397;50.564;7.272;2023-02-01T12:02:23;8.80;99.90
831;DHT22;397;50.564;7.272;2023-02-01T12:04:54;9.00;99.90
831;DHT22;397;50.564;7.272;2023-02-01T12:07:22;8.90;99.90
831;DHT22;397;50.564;7.272;2023-02-01T12:10:27;8.90;99.90
831;DHT22;397;50.564;7.272;2023-02-01T12:12:47;9.10;99.90
831;DHT22;397;50.564;7.272;2023-02-01T12:18:10;9.00;99.90
831;DHT22;397;50.564;7.272;2023-02-01T12:28:53;8.90;99.90
831;DHT22;397;50.564;7.272;2023-02-01T12:31:32;8.80;99.90
831;DHT22;397;50.564;7.272;2023-02-01T12:34:17;8.80;99.90
831;DHT22;397;50.564;7.272;2023-02-01T12:39:39;8.80;99.90
831;DHT22;397;50.564;7.272;2023-02-01T12:42:30;8.70;99.90
831;DHT22;397;50.564;7.272;2023-02-01T12:45:11;8.80;99.90
831;DHT22;397;50.564;7.272;2023-02-01T12:47:55;9.00;99.90
831;DHT22;397;50.564;7.272;2023-02-01T12:50:31;9.10;99.90
831;DHT22;397;50.564;7.272;2023-02-01T12:53:25;9.20;99.90
831;DHT22;397;50.564;7.272;2023-02-01T12:55:55;9.00;99.90
831;DHT22;397;50.564;7.272;2023-02-01T13:01:13;9.00;99.90
831;DHT22;397;50.564;7.272;2023-02-01T13:04:05;9.00;99.90
831;DHT22;397;50.564;7.272;2023-02-01T13:06:41;9.10;99.90
831;DHT22;397;50.564;7.272;2023-02-01T13:11:46;9.10;99.90
831;DHT22;397;50.564;7.272;2023-02-01T13:17:29;9.00;99.90
831;DHT22;397;50.564;7.272;2023-02-01T13:19:59;9.00;99.90
831;DHT22;397;50.564;7.272;2023-02-01T13:22:48;8.90;99.90
831;DHT22;397;50.564;7.272;2023-02-01T13:25:31;8.80;99.90
831;DHT22;397;50.564;7.272;2023-02-01T13:28:04;8.80;99.90
831;DHT22;397;50.564;7.272;2023-02-01T13:30:38;8.80;99.90
831;DHT22;397;50.564;7.272;2023-02-01T13:38:49;8.80;99.90
831;DHT22;397;50.564;7.272;2023-02-01T13:43:46;8.80;99.90
831;DHT22;397;50.564;7.272;2023-02-01T13:46:14;8.80;99.90
831;DHT22;397;50.564;7.272;2023-02-01T13:49:00;8.80;99.90
831;DHT22;397;50.564;7.272;2023-02-01T13:51:46;8.80;99.90
831;DHT22;397;50.564;7.272;2023-02-01T13:54:36;8.80;99.90
831;DHT22;397;50.564;7.272;2023-02-01T13:57:06;8.70;99.90
831;DHT22;397;50.564;7.272;2023-02-01T14:08:10;8.70;99.90
831;DHT22;397;50.564;7.272;2023-02-01T14:13:36;8.60;99.90
831;DHT22;397;50.564;7.272;2023-02-01T14:21:31;8.80;99.90
831;DHT22;397;50.564;7.272;2023-02-01T14:24:01;8.80;99.90
831;DHT22;397;50.564;7.272;2023-02-01T14:26:44;8.80;99.90
831;DHT22;397;50.564;7.272;2023-02-01T14:29:32;8.70;99.90
831;DHT22;397;50.564;7.272;2023-02-01T14:32:17;8.70;99.90
831;DHT22;397;50.564;7.272;2023-02-01T14:34:50;8.70;99.90
831;DHT22;397;50.564;7.272;2023-02-01T14:42:44;8.70;99.90
831;DHT22;397;50.564;7.272;2023-02-01T14:53:12;8.70;99.90
831;DHT22;397;50.564;7.272;2023-02-01T14:55:59;8.80;99.90
831;DHT22;397;50.564;7.272;2023-02-01T14:58:56;8.80;99.90
831;DHT22;397;50.564;7.272;2023-02-01T15:01:27;8.70;99.90
831;DHT22;397;50.564;7.272;2023-02-01T15:04:15;8.70;99.90
831;DHT22;397;50.564;7.272;2023-02-01T15:06:53;8.80;99.90
831;DHT22;397;50.564;7.272;2023-02-01T15:09:35;8.70;99.90
831;DHT22;397;50.564;7.272;2023-02-01T15:12:02;8.70;99.90
831;DHT22;397;50.564;7.272;2023-02-01T15:14:35;8.80;99.90
831;DHT22;397;50.564;7.272;2023-02-01T15:17:15;8.80;99.90
831;DHT22;397;50.564;7.272;2023-02-01T15:19:32;8.80;99.90
831;DHT22;397;50.564;7.272;2023-02-01T15:22:00;8.70;99.90
831;DHT22;397;50.564;7.272;2023-02-01T15:24:30;8.80;99.90
831;DHT22;397;50.564;7.272;2023-02-01T15:27:03;8.80;99.90
831;DHT22;397;50.564;7.272;2023-02-01T15:29:31;8.80;99.90
831;DHT22;397;50.564;7.272;2023-02-01T15:31:59;8.80;99.90
831;DHT22;397;50.564;7.272;2023-02-01T15:34:48;8.80;99.90
831;DHT22;397;50.564;7.272;2023-02-01T15:37:16;8.90;99.90
831;DHT22;397;50.564;7.272;2023-02-01T15:40:26;8.90;99.90
831;DHT22;397;50.564;7.272;2023-02-01T15:42:34;8.70;99.90
831;DHT22;397;50.564;7.272;2023-02-01T15:45:03;8.70;99.90
831;DHT22;397;50.564;7.272;2023-02-01T15:47:31;8.80;99.90
831;DHT22;397;50.564;7.272;2023-02-01T15:50:00;8.70;99.90
831;DHT22;397;50.564;7.272;2023-02-01T15:52:39;8.80;99.90
831;DHT22;397;50.564;7.272;2023-02-01T15:55:17;8.80;99.90
831;DHT22;397;50.564;7.272;2023-02-01T15:57:39;8.80;99.90
831;DHT22;397;50.564;7.272;2023-02-01T16:00:23;8.80;99.90
831;DHT22;397;50.564;7.272;2023-02-01T16:02:58;8.80;99.90
831;DHT22;397;50.564;7.272;2023-02-01T16:05:34;8.90;99.90
831;DHT22;397;50.564;7.272;2023-02-01T16:08:19;8.90;99.90
831;DHT22;397;50.564;7.272;2023-02-01T16:10:47;8.90;99.90
831;DHT22;397;50.564;7.272;2023-02-01T16:13:16;8.70;99.90
831;DHT22;397;50.564;7.272;2023-02-01T16:15:44;8.70;99.90
831;DHT22;397;50.564;7.272;2023-02-01T16:18:13;8.70;99.90
831;DHT22;397;50.564;7.272;2023-02-01T16:20:42;8.60;99.90
831;DHT22;397;50.564;7.272;2023-02-01T16:23:10;8.70;99.90
831;DHT22;397;50.564;7.272;2023-02-01T16:25:38;8.60;99.90
831;DHT22;397;50.564;7.272;2023-02-01T16:28:06;8.60;99.90
831;DHT22;397;50.564;7.272;2023-02-01T16:30:34;8.40;99.90
831;DHT22;397;50.564;7.272;2023-02-01T16:33:02;8.30;99.90
831;DHT22;397;50.564;7.272;2023-02-01T16:35:34;8.40;99.90
831;DHT22;397;50.564;7.272;2023-02-01T16:38:05;8.40;99.90
831;DHT22;397;50.564;7.272;2023-02-01T16:40:35;8.30;99.90
831;DHT22;397;50.564;7.272;2023-02-01T16:43:10;8.20;99.90
831;DHT22;397;50.564;7.272;2023-02-01T16:45:33;8.10;99.90
831;DHT22;397;50.564;7.272;2023-02-01T16:48:04;8.00;99.90
831;DHT22;397;50.564;7.272;2023-02-01T16:50:32;7.90;99.90
831;DHT22;397;50.564;7.272;2023-02-01T16:53:01;7.90;99.90
831;DHT22;397;50.564;7.272;2023-02-01T16:55:29;7.80;99.90
831;DHT22;397;50.564;7.272;2023-02-01T16:57:56;7.80;99.90
831;DHT22;397;50.564;7.272;2023-02-01T17:00:24;7.80;99.90
831;DHT22;397;50.564;7.272;2023-02-01T17:02:53;7.80;99.90
831;DHT22;397;50.564;7.272;2023-02-01T17:05:21;7.80;99.90
831;DHT22;397;50.564;7.272;2023-02-01T17:07:48;7.80;99.90
831;DHT22;397;50.564;7.272;2023-02-01T17:10:22;7.80;99.90
831;DHT22;397;50.564;7.272;2023-02-01T17:12:49;7.80;99.90
831;DHT22;397;50.564;7.272;2023-02-01T17:15:17;7.80;99.90
831;DHT22;397;50.564;7.272;2023-02-01T17:17:45;7.80;99.90
831;DHT22;397;50.564;7.272;2023-02-01T17:20:20;7.80;99.90
831;DHT22;397;50.564;7.272;2023-02-01T17:22:50;7.60;99.90
831;DHT22;397;50.564;7.272;2023-02-01T17:25:20;7.60;99.90
831;DHT22;397;50.564;7.272;2023-02-01T17:27:48;7.60;99.90
831;DHT22;397;50.564;7.272;2023-02-01T17:30:16;7.50;99.90
831;DHT22;397;50.564;7.272;2023-02-01T17:32:44;7.40;99.90
831;DHT22;397;50.564;7.272;2023-02-01T17:35:20;7.50;99.90
831;DHT22;397;50.564;7.272;2023-02-01T17:37:49;7.50;99.90
831;DHT22;397;50.564;7.272;2023-02-01T17:40:17;7.50;99.90
831;DHT22;397;50.564;7.272;2023-02-01T17:42:44;7.50;99.90
831;DHT22;397;50.564;7.272;2023-02-01T17:45:22;7.50;99.90
831;DHT22;397;50.564;7.272;2023-02-01T17:47:49;7.50;99.90
831;DHT22;397;50.564;7.272;2023-02-01T17:50:16;7.50;99.90
831;DHT22;397;50.564;7.272;2023-02-01T17:52:44;7.50;99.90
831;DHT22;397;50.564;7.272;2023-02-01T17:55:20;7.50;99.90
831;DHT22;397;50.564;7.272;2023-02-01T17:57:48;7.40;99.90
831;DHT22;397;50.564;7.272;2023-02-01T18:00:16;7.30;99.90
831;DHT22;397;50.564;7.272;2023-02-01T18:02:44;7.50;99.90
831;DHT22;397;50.564;7.272;2023-02-01T18:07:43;7.50;99.90
831;DHT22;397;50.564;7.272;2023-02-01T18:10:10;7.30;99.90
831;DHT22;397;50.564;7.272;2023-02-01T18:12:38;7.40;99.90
831;DHT22;397;50.564;7.272;2023-02-01T18:15:14;7.50;99.90
831;DHT22;397;50.564;7.272;2023-02-01T18:17:42;7.40;99.90
831;DHT22;397;50.564;7.272;2023-02-01T18:20:15;7.40;99.90
831;DHT22;397;50.564;7.272;2023-02-01T18:22:44;7.40;99.90
831;DHT22;397;50.564;7.272;2023-02-01T18:25:16;7.40;99.90
831;DHT22;397;50.564;7.272;2023-02-01T18:27:44;7.30;99.90
831;DHT22;397;50.564;7.272;2023-02-01T18:30:11;7.30;99.90
831;DHT22;397;50.564;7.272;2023-02-01T18:32:39;7.30;99.90
831;DHT22;397;50.564;7.272;2023-02-01T18:35:22;7.30;99.90
831;DHT22;397;50.564;7.272;2023-02-01T18:37:51;7.20;99.90
831;DHT22;397;50.564;7.272;2023-02-01T18:40:27;7.40;99.90
831;DHT22;397;50.564;7.272;2023-02-01T18:42:54;7.40;99.90
831;DHT22;397;50.564;7.272;2023-02-01T18:47:56;7.40;99.90
831;DHT22;397;50.564;7.272;2023-02-01T18:50:26;7.30;99.90
831;DHT22;397;50.564;7.272;2023-02-01T18:52:56;7.30;99.90
831;DHT22;397;50.564;7.272;2023-02-01T18:55:25;7.40;99.90
831;DHT22;397;50.564;7.272;2023-02-01T18:57:53;7.30;99.90
831;DHT22;397;50.564;7.272;2023-02-01T19:00:21;7.40;99.90
831;DHT22;397;50.564;7.272;2023-02-01T19:02:49;7.40;99.90
831;DHT22;397;50.564;7.272;2023-02-01T19:05:17;7.40;99.90
831;DHT22;397;50.564;7.272;2023-02-01T19:07:45;7.30;99.90
831;DHT22;397;50.564;7.272;2023-02-01T19:10:16;7.40;99.90
831;DHT22;397;50.564;7.272;2023-02-01T19:12:43;7.40;99.90
831;DHT22;397;50.564;7.272;2023-02-01T19:15:12;7.40;99.90
831;DHT22;397;50.564;7.272;2023-02-01T19:17:47;7.50;99.90
831;DHT22;397;50.564;7.272;2023-02-01T19:20:16;7.50;99.90